Decoded Metar for PAKP (ANAKTUVUK PASS in AK, USA) (IATA:AKP) | Meteo·Mobile Aviation Weather
aviador You're here:

PAKP Decoded Metar

ANAKTUVUK PASS in AK, USA
Report Time2019-03-21 21:56:00
UTC Time2019-03-22 14:42:12
Flight Rules Old
Wind040° at 14 kt
W.Decomp.*RWY 02: 14.0 kt HW 0.2 kt LCW
W.Rank040° ranks 1
Current wind is above 040° avg. (9.6)
Visibility9999 m
Phenomena:N/A
Clouds:Overcast 037 Hf
Expected CloudBase > 1,600 ft AGL from Temp-Dew spread
Ceiling3,700 ft
Temp-18°C (ISA -29)
Dew Point-22°C (71% RH)
AAT-26.7°C
QNH1009 hPa
Density Alt-1,385 ft
Elevation2,106 ft
Report Wrong Elevation
Raw Report
PAKP 212156Z AUTO 04014KT 10SM OVC037 M18/M22 A2980 RMK AO2 SLP169
T11781217 FZRANO=

Extra information for PAKP:More info

Metar Taf Metar & Taf Last 4 Metars F.Rules Stats Wind Profile Meteogram Temp Stats Airport Information Weather charts Add Link Nearby VenuesMetar ALERT Operation Metar Decoded Social comments

AIRNAV info for PAKP